sensor_id;sensor_type;location;lat;lon;timestamp;P1;durP1;ratioP1;P2;durP2;ratioP2
75456;SDS011;64036;48.266;14.192;2024-03-23T00:55:43;11.30;;;8.00;;
75456;SDS011;64036;48.266;14.192;2024-03-23T00:58:08;9.70;;;7.20;;
75456;SDS011;64036;48.266;14.192;2024-03-23T01:00:34;12.30;;;8.10;;
75456;SDS011;64036;48.266;14.192;2024-03-23T01:03:01;12.00;;;7.60;;
75456;SDS011;64036;48.266;14.192;2024-03-23T01:05:26;11.80;;;7.60;;
75456;SDS011;64036;48.266;14.192;2024-03-23T01:07:52;10.30;;;6.70;;
75456;SDS011;64036;48.266;14.192;2024-03-23T01:10:18;9.70;;;7.00;;
75456;SDS011;64036;48.266;14.192;2024-03-23T01:12:43;9.50;;;7.10;;
75456;SDS011;64036;48.266;14.192;2024-03-23T01:15:09;11.60;;;7.60;;
75456;SDS011;64036;48.266;14.192;2024-03-23T01:17:35;10.60;;;6.90;;
75456;SDS011;64036;48.266;14.192;2024-03-23T01:20:00;10.00;;;6.60;;
75456;SDS011;64036;48.266;14.192;2024-03-23T01:22:26;10.20;;;7.10;;
75456;SDS011;64036;48.266;14.192;2024-03-23T01:24:52;12.40;;;6.80;;
75456;SDS011;64036;48.266;14.192;2024-03-23T01:27:17;12.60;;;8.10;;
75456;SDS011;64036;48.266;14.192;2024-03-23T01:29:43;13.10;;;7.90;;
75456;SDS011;64036;48.266;14.192;2024-03-23T01:32:09;11.60;;;7.60;;
75456;SDS011;64036;48.266;14.192;2024-03-23T01:34:35;12.00;;;7.60;;
75456;SDS011;64036;48.266;14.192;2024-03-23T01:37:00;9.70;;;6.60;;
75456;SDS011;64036;48.266;14.192;2024-03-23T01:39:26;13.10;;;7.80;;
75456;SDS011;64036;48.266;14.192;2024-03-23T01:41:52;11.70;;;8.30;;
75456;SDS011;64036;48.266;14.192;2024-03-23T01:44:17;11.40;;;8.30;;
75456;SDS011;64036;48.266;14.192;2024-03-23T01:46:43;11.30;;;8.10;;
75456;SDS011;64036;48.266;14.192;2024-03-23T01:49:09;12.10;;;8.50;;
75456;SDS011;64036;48.266;14.192;2024-03-23T01:51:36;12.30;;;8.70;;
75456;SDS011;64036;48.266;14.192;2024-03-23T01:54:03;14.40;;;9.60;;
75456;SDS011;64036;48.266;14.192;2024-03-23T01:56:33;13.50;;;9.50;;
75456;SDS011;64036;48.266;14.192;2024-03-23T01:59:05;13.50;;;9.30;;
75456;SDS011;64036;48.266;14.192;2024-03-23T02:01:32;11.00;;;8.40;;
75456;SDS011;64036;48.266;14.192;2024-03-23T02:03:58;13.10;;;9.00;;
75456;SDS011;64036;48.266;14.192;2024-03-23T02:06:24;12.50;;;9.20;;
75456;SDS011;64036;48.266;14.192;2024-03-23T02:08:50;12.00;;;8.20;;
75456;SDS011;64036;48.266;14.192;2024-03-23T02:11:16;13.90;;;8.90;;
75456;SDS011;64036;48.266;14.192;2024-03-23T02:13:42;12.80;;;8.60;;
75456;SDS011;64036;48.266;14.192;2024-03-23T02:16:08;13.10;;;9.00;;
75456;SDS011;64036;48.266;14.192;2024-03-23T02:18:34;11.30;;;8.40;;
75456;SDS011;64036;48.266;14.192;2024-03-23T02:20:59;14.40;;;9.60;;
75456;SDS011;64036;48.266;14.192;2024-03-23T02:23:25;12.00;;;8.90;;
75456;SDS011;64036;48.266;14.192;2024-03-23T02:25:51;11.80;;;8.40;;
75456;SDS011;64036;48.266;14.192;2024-03-23T02:28:18;11.80;;;7.70;;
75456;SDS011;64036;48.266;14.192;2024-03-23T02:30:45;12.40;;;9.30;;
75456;SDS011;64036;48.266;14.192;2024-03-23T02:33:10;11.50;;;8.40;;
75456;SDS011;64036;48.266;14.192;2024-03-23T02:35:36;12.60;;;9.00;;
75456;SDS011;64036;48.266;14.192;2024-03-23T02:38:02;13.10;;;8.70;;
75456;SDS011;64036;48.266;14.192;2024-03-23T02:40:28;12.60;;;8.80;;
75456;SDS011;64036;48.266;14.192;2024-03-23T02:42:54;14.70;;;8.90;;
75456;SDS011;64036;48.266;14.192;2024-03-23T02:45:20;13.10;;;8.90;;
75456;SDS011;64036;48.266;14.192;2024-03-23T02:47:46;13.00;;;8.10;;
75456;SDS011;64036;48.266;14.192;2024-03-23T02:50:11;14.90;;;8.60;;
75456;SDS011;64036;48.266;14.192;2024-03-23T02:52:37;13.60;;;8.40;;
75456;SDS011;64036;48.266;14.192;2024-03-23T02:55:03;12.30;;;7.60;;
75456;SDS011;64036;48.266;14.192;2024-03-23T02:57:30;12.90;;;8.50;;
75456;SDS011;64036;48.266;14.192;2024-03-23T02:59:56;12.10;;;8.50;;
75456;SDS011;64036;48.266;14.192;2024-03-23T03:02:21;10.50;;;7.90;;
75456;SDS011;64036;48.266;14.192;2024-03-23T03:04:47;13.80;;;9.00;;
75456;SDS011;64036;48.266;14.192;2024-03-23T03:07:13;11.20;;;7.80;;
75456;SDS011;64036;48.266;14.192;2024-03-23T03:09:39;11.50;;;8.50;;
75456;SDS011;64036;48.266;14.192;2024-03-23T03:12:06;13.00;;;8.60;;
75456;SDS011;64036;48.266;14.192;2024-03-23T03:14:32;15.10;;;9.30;;
75456;SDS011;64036;48.266;14.192;2024-03-23T03:16:58;12.40;;;8.70;;
75456;SDS011;64036;48.266;14.192;2024-03-23T03:19:23;13.80;;;9.80;;
75456;SDS011;64036;48.266;14.192;2024-03-23T03:21:49;13.10;;;9.00;;
75456;SDS011;64036;48.266;14.192;2024-03-23T03:24:15;12.60;;;9.00;;
75456;SDS011;64036;48.266;14.192;2024-03-23T03:26:42;12.90;;;8.90;;
75456;SDS011;64036;48.266;14.192;2024-03-23T03:29:07;12.60;;;8.20;;
75456;SDS011;64036;48.266;14.192;2024-03-23T03:31:33;13.80;;;9.00;;
75456;SDS011;64036;48.266;14.192;2024-03-23T03:33:59;16.90;;;10.30;;
75456;SDS011;64036;48.266;14.192;2024-03-23T03:36:24;15.10;;;9.40;;
75456;SDS011;64036;48.266;14.192;2024-03-23T03:38:50;17.20;;;9.70;;
75456;SDS011;64036;48.266;14.192;2024-03-23T03:41:16;13.70;;;9.30;;
75456;SDS011;64036;48.266;14.192;2024-03-23T03:43:41;11.90;;;8.90;;
75456;SDS011;64036;48.266;14.192;2024-03-23T03:46:07;12.90;;;9.50;;
75456;SDS011;64036;48.266;14.192;2024-03-23T03:48:33;13.00;;;8.90;;
75456;SDS011;64036;48.266;14.192;2024-03-23T03:50:59;12.90;;;8.90;;
75456;SDS011;64036;48.266;14.192;2024-03-23T03:53:25;12.70;;;9.40;;
75456;SDS011;64036;48.266;14.192;2024-03-23T03:55:51;14.80;;;9.10;;
75456;SDS011;64036;48.266;14.192;2024-03-23T03:58:17;13.20;;;8.70;;
75456;SDS011;64036;48.266;14.192;2024-03-23T04:00:43;13.20;;;9.50;;
75456;SDS011;64036;48.266;14.192;2024-03-23T04:03:08;13.00;;;9.60;;
75456;SDS011;64036;48.266;14.192;2024-03-23T04:05:34;14.70;;;9.50;;
75456;SDS011;64036;48.266;14.192;2024-03-23T04:07:59;13.50;;;9.70;;
75456;SDS011;64036;48.266;14.192;2024-03-23T04:10:25;12.80;;;8.80;;
75456;SDS011;64036;48.266;14.192;2024-03-23T04:12:52;15.70;;;9.60;;
75456;SDS011;64036;48.266;14.192;2024-03-23T04:15:17;12.10;;;8.20;;
75456;SDS011;64036;48.266;14.192;2024-03-23T04:17:43;11.10;;;8.20;;
75456;SDS011;64036;48.266;14.192;2024-03-23T04:20:09;14.00;;;8.30;;
75456;SDS011;64036;48.266;14.192;2024-03-23T04:22:39;17.20;;;9.80;;
75456;SDS011;64036;48.266;14.192;2024-03-23T04:25:06;15.10;;;9.50;;
75456;SDS011;64036;48.266;14.192;2024-03-23T04:27:35;15.70;;;9.70;;
75456;SDS011;64036;48.266;14.192;2024-03-23T04:30:03;14.10;;;8.80;;
75456;SDS011;64036;48.266;14.192;2024-03-23T04:32:35;12.40;;;8.50;;
75456;SDS011;64036;48.266;14.192;2024-03-23T04:35:01;14.50;;;9.70;;
75456;SDS011;64036;48.266;14.192;2024-03-23T04:37:28;11.60;;;7.90;;
75456;SDS011;64036;48.266;14.192;2024-03-23T04:39:54;16.00;;;9.30;;
75456;SDS011;64036;48.266;14.192;2024-03-23T04:42:19;12.40;;;9.00;;
75456;SDS011;64036;48.266;14.192;2024-03-23T04:44:45;14.50;;;9.80;;
75456;SDS011;64036;48.266;14.192;2024-03-23T04:47:10;12.90;;;8.80;;
75456;SDS011;64036;48.266;14.192;2024-03-23T04:49:36;14.10;;;9.00;;
75456;SDS011;64036;48.266;14.192;2024-03-23T04:52:05;15.70;;;10.30;;
75456;SDS011;64036;48.266;14.192;2024-03-23T04:54:31;15.80;;;9.90;;
75456;SDS011;64036;48.266;14.192;2024-03-23T04:57:00;14.30;;;10.40;;
75456;SDS011;64036;48.266;14.192;2024-03-23T04:59:25;16.30;;;10.00;;
75456;SDS011;64036;48.266;14.192;2024-03-23T05:01:51;14.90;;;10.10;;
75456;SDS011;64036;48.266;14.192;2024-03-23T05:04:17;14.50;;;9.10;;
75456;SDS011;64036;48.266;14.192;2024-03-23T05:06:42;14.20;;;9.00;;
75456;SDS011;64036;48.266;14.192;2024-03-23T05:09:08;13.30;;;9.00;;
75456;SDS011;64036;48.266;14.192;2024-03-23T05:11:40;12.50;;;8.60;;
75456;SDS011;64036;48.266;14.192;2024-03-23T05:14:09;15.00;;;9.40;;
75456;SDS011;64036;48.266;14.192;2024-03-23T05:16:36;14.10;;;9.20;;
75456;SDS011;64036;48.266;14.192;2024-03-23T05:19:01;12.50;;;8.30;;
75456;SDS011;64036;48.266;14.192;2024-03-23T05:21:29;14.90;;;9.60;;
75456;SDS011;64036;48.266;14.192;2024-03-23T05:23:56;14.30;;;9.20;;
75456;SDS011;64036;48.266;14.192;2024-03-23T05:26:22;12.50;;;9.00;;
75456;SDS011;64036;48.266;14.192;2024-03-23T05:28:48;13.80;;;9.00;;
75456;SDS011;64036;48.266;14.192;2024-03-23T05:31:28;14.40;;;8.80;;
75456;SDS011;64036;48.266;14.192;2024-03-23T05:33:55;13.00;;;8.70;;
75456;SDS011;64036;48.266;14.192;2024-03-23T05:36:21;13.70;;;9.10;;
75456;SDS011;64036;48.266;14.192;2024-03-23T05:38:47;13.20;;;9.90;;
75456;SDS011;64036;48.266;14.192;2024-03-23T05:41:13;12.00;;;8.40;;
75456;SDS011;64036;48.266;14.192;2024-03-23T05:43:39;13.00;;;10.10;;
75456;SDS011;64036;48.266;14.192;2024-03-23T05:46:05;12.90;;;9.50;;
75456;SDS011;64036;48.266;14.192;2024-03-23T05:48:31;13.30;;;9.90;;
75456;SDS011;64036;48.266;14.192;2024-03-23T05:50:57;12.00;;;9.30;;
75456;SDS011;64036;48.266;14.192;2024-03-23T05:53:24;12.20;;;9.10;;
75456;SDS011;64036;48.266;14.192;2024-03-23T05:55:50;11.60;;;9.40;;
75456;SDS011;64036;48.266;14.192;2024-03-23T05:58:19;12.10;;;9.20;;
75456;SDS011;64036;48.266;14.192;2024-03-23T06:00:45;11.10;;;8.70;;
75456;SDS011;64036;48.266;14.192;2024-03-23T06:03:11;11.00;;;8.30;;
75456;SDS011;64036;48.266;14.192;2024-03-23T06:05:38;11.90;;;8.30;;
75456;SDS011;64036;48.266;14.192;2024-03-23T06:08:04;10.40;;;8.60;;
75456;SDS011;64036;48.266;14.192;2024-03-23T06:10:30;11.60;;;8.20;;
75456;SDS011;64036;48.266;14.192;2024-03-23T06:12:59;10.10;;;7.80;;
75456;SDS011;64036;48.266;14.192;2024-03-23T06:15:25;11.10;;;7.80;;
75456;SDS011;64036;48.266;14.192;2024-03-23T06:17:51;9.70;;;7.40;;
75456;SDS011;64036;48.266;14.192;2024-03-23T06:20:17;8.70;;;7.50;;
75456;SDS011;64036;48.266;14.192;2024-03-23T06:22:42;9.40;;;7.40;;
75456;SDS011;64036;48.266;14.192;2024-03-23T06:25:08;8.50;;;6.80;;
75456;SDS011;64036;48.266;14.192;2024-03-23T06:27:34;10.10;;;7.90;;
75456;SDS011;64036;48.266;14.192;2024-03-23T06:30:00;9.10;;;6.80;;
75456;SDS011;64036;48.266;14.192;2024-03-23T06:32:27;7.60;;;5.90;;
75456;SDS011;64036;48.266;14.192;2024-03-23T06:34:53;9.50;;;6.30;;
75456;SDS011;64036;48.266;14.192;2024-03-23T06:37:18;8.20;;;5.90;;
75456;SDS011;64036;48.266;14.192;2024-03-23T06:39:46;7.60;;;5.40;;
75456;SDS011;64036;48.266;14.192;2024-03-23T06:42:12;7.90;;;5.80;;
75456;SDS011;64036;48.266;14.192;2024-03-23T06:44:38;8.80;;;6.10;;
75456;SDS011;64036;48.266;14.192;2024-03-23T06:47:05;7.60;;;5.50;;
75456;SDS011;64036;48.266;14.192;2024-03-23T06:49:31;7.70;;;5.10;;
75456;SDS011;64036;48.266;14.192;2024-03-23T06:51:57;7.50;;;5.00;;
75456;SDS011;64036;48.266;14.192;2024-03-23T06:54:24;6.80;;;4.90;;
75456;SDS011;64036;48.266;14.192;2024-03-23T06:56:50;7.50;;;5.50;;
75456;SDS011;64036;48.266;14.192;2024-03-23T06:59:16;8.60;;;5.00;;
75456;SDS011;64036;48.266;14.192;2024-03-23T07:01:41;6.30;;;4.70;;
75456;SDS011;64036;48.266;14.192;2024-03-23T07:04:07;7.20;;;5.10;;
75456;SDS011;64036;48.266;14.192;2024-03-23T07:06:43;6.20;;;4.40;;
75456;SDS011;64036;48.266;14.192;2024-03-23T07:09:09;7.30;;;5.40;;
75456;SDS011;64036;48.266;14.192;2024-03-23T07:11:35;6.60;;;4.00;;
75456;SDS011;64036;48.266;14.192;2024-03-23T07:14:01;6.60;;;4.60;;
75456;SDS011;64036;48.266;14.192;2024-03-23T07:16:28;8.50;;;5.20;;
75456;SDS011;64036;48.266;14.192;2024-03-23T07:18:54;7.00;;;4.60;;
75456;SDS011;64036;48.266;14.192;2024-03-23T07:21:19;7.30;;;4.90;;
75456;SDS011;64036;48.266;14.192;2024-03-23T07:23:45;7.50;;;4.80;;
75456;SDS011;64036;48.266;14.192;2024-03-23T07:26:11;7.10;;;4.40;;
75456;SDS011;64036;48.266;14.192;2024-03-23T07:28:37;7.70;;;5.30;;
75456;SDS011;64036;48.266;14.192;2024-03-23T07:31:13;6.10;;;4.80;;
75456;SDS011;64036;48.266;14.192;2024-03-23T07:33:46;7.80;;;4.40;;
75456;SDS011;64036;48.266;14.192;2024-03-23T07:36:13;6.10;;;4.70;;
75456;SDS011;64036;48.266;14.192;2024-03-23T07:38:43;7.00;;;4.70;;
75456;SDS011;64036;48.266;14.192;2024-03-23T07:41:15;7.20;;;4.80;;
75456;SDS011;64036;48.266;14.192;2024-03-23T07:43:46;7.50;;;5.00;;
75456;SDS011;64036;48.266;14.192;2024-03-23T07:46:13;6.70;;;4.30;;
75456;SDS011;64036;48.266;14.192;2024-03-23T07:48:40;6.40;;;4.90;;
75456;SDS011;64036;48.266;14.192;2024-03-23T07:51:08;7.60;;;4.80;;
75456;SDS011;64036;48.266;14.192;2024-03-23T07:53:35;6.10;;;3.80;;
75456;SDS011;64036;48.266;14.192;2024-03-23T07:56:08;7.20;;;4.10;;
75456;SDS011;64036;48.266;14.192;2024-03-23T07:58:37;5.00;;;3.60;;
75456;SDS011;64036;48.266;14.192;2024-03-23T08:01:11;5.10;;;3.50;;
75456;SDS011;64036;48.266;14.192;2024-03-23T08:03:40;6.60;;;3.60;;
75456;SDS011;64036;48.266;14.192;2024-03-23T08:08:38;6.10;;;4.10;;
75456;SDS011;64036;48.266;14.192;2024-03-23T08:11:05;6.90;;;4.10;;
75456;SDS011;64036;48.266;14.192;2024-03-23T08:13:31;8.40;;;4.60;;
75456;SDS011;64036;48.266;14.192;2024-03-23T08:15:58;8.30;;;4.60;;
75456;SDS011;64036;48.266;14.192;2024-03-23T08:18:27;7.40;;;4.50;;
75456;SDS011;64036;48.266;14.192;2024-03-23T08:23:27;6.80;;;4.20;;
75456;SDS011;64036;48.266;14.192;2024-03-23T08:25:58;7.20;;;4.20;;
75456;SDS011;64036;48.266;14.192;2024-03-23T08:28:25;6.50;;;4.10;;
75456;SDS011;64036;48.266;14.192;2024-03-23T08:30:54;5.60;;;3.50;;
75456;SDS011;64036;48.266;14.192;2024-03-23T08:36:00;7.60;;;3.80;;
75456;SDS011;64036;48.266;14.192;2024-03-23T08:38:28;5.80;;;3.60;;
75456;SDS011;64036;48.266;14.192;2024-03-23T08:41:08;5.20;;;3.30;;
75456;SDS011;64036;48.266;14.192;2024-03-23T08:43:40;6.40;;;3.50;;
75456;SDS011;64036;48.266;14.192;2024-03-23T08:46:13;4.80;;;3.50;;
75456;SDS011;64036;48.266;14.192;2024-03-23T08:48:42;5.10;;;3.10;;
75456;SDS011;64036;48.266;14.192;2024-03-23T08:51:10;4.90;;;3.10;;
75456;SDS011;64036;48.266;14.192;2024-03-23T08:53:36;5.30;;;3.30;;
75456;SDS011;64036;48.266;14.192;2024-03-23T08:56:03;4.90;;;3.10;;
75456;SDS011;64036;48.266;14.192;2024-03-23T08:58:30;5.60;;;3.30;;
75456;SDS011;64036;48.266;14.192;2024-03-23T09:01:03;5.00;;;3.40;;
75456;SDS011;64036;48.266;14.192;2024-03-23T09:03:31;5.70;;;3.70;;
75456;SDS011;64036;48.266;14.192;2024-03-23T09:05:57;4.60;;;3.20;;
75456;SDS011;64036;48.266;14.192;2024-03-23T09:08:24;5.90;;;3.30;;
75456;SDS011;64036;48.266;14.192;2024-03-23T09:10:50;4.50;;;2.70;;
75456;SDS011;64036;48.266;14.192;2024-03-23T09:13:17;6.80;;;3.10;;
75456;SDS011;64036;48.266;14.192;2024-03-23T09:15:50;4.30;;;2.70;;
75456;SDS011;64036;48.266;14.192;2024-03-23T09:18:19;5.30;;;3.20;;
75456;SDS011;64036;48.266;14.192;2024-03-23T09:20:45;4.70;;;3.20;;
75456;SDS011;64036;48.266;14.192;2024-03-23T09:23:10;5.40;;;3.10;;
75456;SDS011;64036;48.266;14.192;2024-03-23T09:25:37;5.80;;;3.00;;
75456;SDS011;64036;48.266;14.192;2024-03-23T09:28:04;4.30;;;2.90;;
75456;SDS011;64036;48.266;14.192;2024-03-23T09:30:36;7.40;;;3.20;;
75456;SDS011;64036;48.266;14.192;2024-03-23T09:33:11;7.30;;;2.70;;
75456;SDS011;64036;48.266;14.192;2024-03-23T09:35:42;4.90;;;2.70;;
75456;SDS011;64036;48.266;14.192;2024-03-23T09:38:10;5.50;;;2.50;;
75456;SDS011;64036;48.266;14.192;2024-03-23T09:40:42;6.40;;;2.70;;
75456;SDS011;64036;48.266;14.192;2024-03-23T09:43:09;5.70;;;2.50;;
75456;SDS011;64036;48.266;14.192;2024-03-23T09:45:38;17.00;;;3.00;;
75456;SDS011;64036;48.266;14.192;2024-03-23T09:48:06;4.40;;;2.60;;
75456;SDS011;64036;48.266;14.192;2024-03-23T09:50:34;5.80;;;2.40;;
75456;SDS011;64036;48.266;14.192;2024-03-23T09:53:00;5.10;;;2.40;;
75456;SDS011;64036;48.266;14.192;2024-03-23T09:55:26;8.10;;;2.60;;
75456;SDS011;64036;48.266;14.192;2024-03-23T09:57:52;7.40;;;2.70;;
75456;SDS011;64036;48.266;14.192;2024-03-23T10:00:18;5.00;;;2.80;;
75456;SDS011;64036;48.266;14.192;2024-03-23T10:02:45;7.10;;;3.00;;
75456;SDS011;64036;48.266;14.192;2024-03-23T10:05:20;5.40;;;2.50;;
75456;SDS011;64036;48.266;14.192;2024-03-23T10:07:49;5.30;;;2.60;;
75456;SDS011;64036;48.266;14.192;2024-03-23T10:10:16;6.30;;;2.40;;
75456;SDS011;64036;48.266;14.192;2024-03-23T10:12:46;10.20;;;1.80;;
75456;SDS011;64036;48.266;14.192;2024-03-23T10:15:19;5.40;;;1.30;;
75456;SDS011;64036;48.266;14.192;2024-03-23T10:17:46;6.20;;;1.30;;
75456;SDS011;64036;48.266;14.192;2024-03-23T10:20:13;4.30;;;1.50;;
75456;SDS011;64036;48.266;14.192;2024-03-23T10:22:41;4.80;;;1.50;;
75456;SDS011;64036;48.266;14.192;2024-03-23T10:25:09;6.70;;;1.90;;
75456;SDS011;64036;48.266;14.192;2024-03-23T10:27:35;1.60;;;1.30;;
75456;SDS011;64036;48.266;14.192;2024-03-23T10:30:12;4.20;;;1.60;;
75456;SDS011;64036;48.266;14.192;2024-03-23T10:32:42;8.10;;;1.40;;
75456;SDS011;64036;48.266;14.192;2024-03-23T10:35:18;2.30;;;1.20;;
75456;SDS011;64036;48.266;14.192;2024-03-23T10:37:47;0.90;;;0.80;;
75456;SDS011;64036;48.266;14.192;2024-03-23T10:40:15;1.70;;;0.90;;
75456;SDS011;64036;48.266;14.192;2024-03-23T10:42:41;2.50;;;0.80;;
75456;SDS011;64036;48.266;14.192;2024-03-23T10:45:07;4.10;;;1.20;;
75456;SDS011;64036;48.266;14.192;2024-03-23T10:47:35;2.50;;;1.10;;
75456;SDS011;64036;48.266;14.192;2024-03-23T10:50:03;3.00;;;1.10;;
75456;SDS011;64036;48.266;14.192;2024-03-23T10:52:32;2.10;;;1.10;;
75456;SDS011;64036;48.266;14.192;2024-03-23T10:55:00;2.20;;;1.00;;
75456;SDS011;64036;48.266;14.192;2024-03-23T10:57:34;3.20;;;1.20;;
75456;SDS011;64036;48.266;14.192;2024-03-23T11:00:04;1.00;;;0.90;;
75456;SDS011;64036;48.266;14.192;2024-03-23T11:02:31;2.10;;;1.10;;
75456;SDS011;64036;48.266;14.192;2024-03-23T11:04:56;3.00;;;1.10;;
75456;SDS011;64036;48.266;14.192;2024-03-23T11:07:32;1.00;;;0.90;;
75456;SDS011;64036;48.266;14.192;2024-03-23T11:09:59;1.10;;;1.00;;
75456;SDS011;64036;48.266;14.192;2024-03-23T11:12:31;2.30;;;0.90;;
75456;SDS011;64036;48.266;14.192;2024-03-23T11:15:04;2.50;;;1.10;;
75456;SDS011;64036;48.266;14.192;2024-03-23T11:17:31;1.10;;;0.80;;
75456;SDS011;64036;48.266;14.192;2024-03-23T11:20:01;1.30;;;1.10;;
75456;SDS011;64036;48.266;14.192;2024-03-23T11:22:37;1.40;;;0.90;;
75456;SDS011;64036;48.266;14.192;2024-03-23T11:25:20;1.60;;;1.20;;
75456;SDS011;64036;48.266;14.192;2024-03-23T11:27:48;1.00;;;0.90;;
75456;SDS011;64036;48.266;14.192;2024-03-23T11:32:46;0.80;;;0.80;;
75456;SDS011;64036;48.266;14.192;2024-03-23T11:38:17;1.20;;;1.00;;
75456;SDS011;64036;48.266;14.192;2024-03-23T11:40:50;1.50;;;1.10;;
75456;SDS011;64036;48.266;14.192;2024-03-23T11:43:18;1.80;;;1.20;;
75456;SDS011;64036;48.266;14.192;2024-03-23T11:45:45;1.40;;;1.10;;
75456;SDS011;64036;48.266;14.192;2024-03-23T11:48:19;1.20;;;1.00;;
75456;SDS011;64036;48.266;14.192;2024-03-23T11:50:51;2.60;;;1.20;;
75456;SDS011;64036;48.266;14.192;2024-03-23T11:53:21;1.50;;;1.20;;
75456;SDS011;64036;48.266;14.192;2024-03-23T11:55:56;1.90;;;1.10;;
75456;SDS011;64036;48.266;14.192;2024-03-23T11:58:24;1.90;;;1.30;;
75456;SDS011;64036;48.266;14.192;2024-03-23T12:01:00;2.60;;;1.20;;
75456;SDS011;64036;48.266;14.192;2024-03-23T12:03:31;2.90;;;1.40;;
75456;SDS011;64036;48.266;14.192;2024-03-23T12:06:00;2.70;;;1.60;;
75456;SDS011;64036;48.266;14.192;2024-03-23T12:08:34;2.20;;;1.40;;
75456;SDS011;64036;48.266;14.192;2024-03-23T12:11:16;2.90;;;1.60;;
75456;SDS011;64036;48.266;14.192;2024-03-23T12:16:16;3.00;;;1.50;;
75456;SDS011;64036;48.266;14.192;2024-03-23T12:18:44;2.70;;;1.40;;
75456;SDS011;64036;48.266;14.192;2024-03-23T12:21:11;1.90;;;1.60;;
75456;SDS011;64036;48.266;14.192;2024-03-23T12:23:41;4.10;;;1.60;;
75456;SDS011;64036;48.266;14.192;2024-03-23T12:26:14;2.70;;;1.50;;
75456;SDS011;64036;48.266;14.192;2024-03-23T12:28:40;2.50;;;1.50;;
75456;SDS011;64036;48.266;14.192;2024-03-23T12:31:06;2.20;;;1.60;;
75456;SDS011;64036;48.266;14.192;2024-03-23T12:33:32;2.20;;;1.60;;
75456;SDS011;64036;48.266;14.192;2024-03-23T12:35:58;3.30;;;1.70;;
75456;SDS011;64036;48.266;14.192;2024-03-23T12:38:23;3.30;;;2.00;;
75456;SDS011;64036;48.266;14.192;2024-03-23T12:40:49;3.50;;;1.40;;
75456;SDS011;64036;48.266;14.192;2024-03-23T12:43:16;3.70;;;1.70;;
75456;SDS011;64036;48.266;14.192;2024-03-23T12:45:49;2.10;;;1.50;;
75456;SDS011;64036;48.266;14.192;2024-03-23T12:48:15;1.80;;;1.50;;
75456;SDS011;64036;48.266;14.192;2024-03-23T12:50:41;2.50;;;1.40;;
75456;SDS011;64036;48.266;14.192;2024-03-23T12:53:07;2.60;;;1.40;;
75456;SDS011;64036;48.266;14.192;2024-03-23T12:55:36;1.90;;;1.30;;
75456;SDS011;64036;48.266;14.192;2024-03-23T12:58:02;3.10;;;1.40;;
75456;SDS011;64036;48.266;14.192;2024-03-23T13:00:28;2.40;;;1.50;;
75456;SDS011;64036;48.266;14.192;2024-03-23T13:02:53;1.90;;;1.30;;
75456;SDS011;64036;48.266;14.192;2024-03-23T13:05:19;1.90;;;1.40;;
75456;SDS011;64036;48.266;14.192;2024-03-23T13:07:45;1.80;;;1.40;;
75456;SDS011;64036;48.266;14.192;2024-03-23T13:10:10;2.40;;;1.50;;
75456;SDS011;64036;48.266;14.192;2024-03-23T13:12:36;1.80;;;1.30;;
75456;SDS011;64036;48.266;14.192;2024-03-23T13:15:02;1.30;;;1.20;;
75456;SDS011;64036;48.266;14.192;2024-03-23T13:17:28;1.70;;;1.20;;
75456;SDS011;64036;48.266;14.192;2024-03-23T13:19:54;2.20;;;1.20;;
75456;SDS011;64036;48.266;14.192;2024-03-23T13:22:21;1.40;;;1.10;;
75456;SDS011;64036;48.266;14.192;2024-03-23T13:24:47;1.20;;;1.10;;
75456;SDS011;64036;48.266;14.192;2024-03-23T13:27:12;1.40;;;1.20;;
75456;SDS011;64036;48.266;14.192;2024-03-23T13:29:38;1.80;;;1.00;;
75456;SDS011;64036;48.266;14.192;2024-03-23T13:32:04;1.30;;;1.00;;
75456;SDS011;64036;48.266;14.192;2024-03-23T13:34:31;0.90;;;0.90;;
75456;SDS011;64036;48.266;14.192;2024-03-23T13:36:56;0.80;;;0.80;;
75456;SDS011;64036;48.266;14.192;2024-03-23T13:39:23;1.10;;;0.80;;
75456;SDS011;64036;48.266;14.192;2024-03-23T13:41:49;0.70;;;0.70;;
75456;SDS011;64036;48.266;14.192;2024-03-23T13:44:15;2.60;;;1.10;;
75456;SDS011;64036;48.266;14.192;2024-03-23T13:46:42;0.80;;;0.80;;
75456;SDS011;64036;48.266;14.192;2024-03-23T13:49:25;1.50;;;0.70;;
75456;SDS011;64036;48.266;14.192;2024-03-23T13:51:53;0.80;;;0.80;;
75456;SDS011;64036;48.266;14.192;2024-03-23T13:54:19;2.00;;;0.90;;
75456;SDS011;64036;48.266;14.192;2024-03-23T13:56:45;0.60;;;0.60;;
75456;SDS011;64036;48.266;14.192;2024-03-23T13:59:13;1.30;;;0.70;;
75456;SDS011;64036;48.266;14.192;2024-03-23T14:01:39;1.10;;;1.00;;
75456;SDS011;64036;48.266;14.192;2024-03-23T14:04:05;0.90;;;0.70;;
75456;SDS011;64036;48.266;14.192;2024-03-23T14:06:31;0.70;;;0.70;;
75456;SDS011;64036;48.266;14.192;2024-03-23T14:08:57;1.30;;;1.00;;
75456;SDS011;64036;48.266;14.192;2024-03-23T14:11:23;1.90;;;0.90;;
75456;SDS011;64036;48.266;14.192;2024-03-23T14:13:51;1.50;;;0.90;;
75456;SDS011;64036;48.266;14.192;2024-03-23T14:16:16;1.60;;;1.20;;
75456;SDS011;64036;48.266;14.192;2024-03-23T14:18:42;1.40;;;1.20;;
75456;SDS011;64036;48.266;14.192;2024-03-23T14:21:08;1.80;;;1.10;;
75456;SDS011;64036;48.266;14.192;2024-03-23T14:23:35;1.20;;;1.10;;
75456;SDS011;64036;48.266;14.192;2024-03-23T14:26:01;2.70;;;1.00;;
75456;SDS011;64036;48.266;14.192;2024-03-23T14:28:27;8.10;;;1.30;;
75456;SDS011;64036;48.266;14.192;2024-03-23T14:30:55;1.20;;;1.10;;
75456;SDS011;64036;48.266;14.192;2024-03-23T14:33:21;1.00;;;1.00;;
75456;SDS011;64036;48.266;14.192;2024-03-23T14:35:56;1.30;;;1.10;;
75456;SDS011;64036;48.266;14.192;2024-03-23T14:38:23;1.00;;;1.00;;
75456;SDS011;64036;48.266;14.192;2024-03-23T14:40:49;1.20;;;1.10;;
75456;SDS011;64036;48.266;14.192;2024-03-23T14:43:15;0.90;;;0.90;;
75456;SDS011;64036;48.266;14.192;2024-03-23T14:46:09;1.80;;;1.30;;
75456;SDS011;64036;48.266;14.192;2024-03-23T14:48:37;3.80;;;1.40;;
75456;SDS011;64036;48.266;14.192;2024-03-23T14:51:03;1.50;;;1.40;;
75456;SDS011;64036;48.266;14.192;2024-03-23T14:53:34;1.60;;;1.10;;
75456;SDS011;64036;48.266;14.192;2024-03-23T14:56:02;2.00;;;1.50;;
75456;SDS011;64036;48.266;14.192;2024-03-23T14:58:29;3.90;;;1.70;;
75456;SDS011;64036;48.266;14.192;2024-03-23T15:01:02;2.00;;;1.40;;
75456;SDS011;64036;48.266;14.192;2024-03-23T15:03:35;2.10;;;1.60;;
75456;SDS011;64036;48.266;14.192;2024-03-23T15:06:01;1.40;;;1.30;;
75456;SDS011;64036;48.266;14.192;2024-03-23T15:08:28;2.30;;;1.40;;
75456;SDS011;64036;48.266;14.192;2024-03-23T15:10:54;1.30;;;1.30;;
75456;SDS011;64036;48.266;14.192;2024-03-23T15:13:20;2.60;;;1.20;;
75456;SDS011;64036;48.266;14.192;2024-03-23T15:15:48;1.40;;;1.20;;
75456;SDS011;64036;48.266;14.192;2024-03-23T15:18:14;1.60;;;1.30;;
75456;SDS011;64036;48.266;14.192;2024-03-23T15:20:56;2.30;;;1.20;;
75456;SDS011;64036;48.266;14.192;2024-03-23T15:23:23;2.40;;;1.40;;
75456;SDS011;64036;48.266;14.192;2024-03-23T15:25:56;1.70;;;1.50;;
75456;SDS011;64036;48.266;14.192;2024-03-23T15:28:29;2.10;;;1.40;;
75456;SDS011;64036;48.266;14.192;2024-03-23T15:31:14;2.50;;;1.40;;
75456;SDS011;64036;48.266;14.192;2024-03-23T15:33:39;2.30;;;1.60;;
75456;SDS011;64036;48.266;14.192;2024-03-23T15:36:05;2.00;;;1.40;;
75456;SDS011;64036;48.266;14.192;2024-03-23T15:38:32;2.70;;;1.40;;
75456;SDS011;64036;48.266;14.192;2024-03-23T15:40:58;2.50;;;1.60;;